USCGC Polar Star — NBTM — position and weather

sailwx.info

Track history (hours):
 
Tides and Currents Weather Stations Pressure Air Temp Water Temp Dewpoint Dewpoint Depression Visibility Wind Speed Wind Dir Waves Ship Positions

Oceanographic research ship USCGC Polar Star (USA)

Detailed information on ship capabilities available from University of Delaware's Ocean Information Center and ARCUS's ALIAS (Arctic Logistics Information and Support) project.

Last reported at 2015-Mar-10 15:23 UTC. Time now 2015-Apr-01 21:14 UTC.
Position N 47°35' W 122°21'.
Warning: this ship's position is 22 days out of date.

Type: Military. MMSI: 367255000.

Date/timePositionNaut miles runAvg speedWind from/ knotsBaromVisibWave heightAir tempDewpointWater temp
2015-Mar-10 15:23N 47°35' W 122°21'2 2.4
2015-Mar-10 14:33N 47°36' W 122°23'1414.2
2015-Mar-10 13:33N 47°50' W 122°28'1615.8
2015-Mar-10 12:32N 48°04' W 122°40'1414.5
2015-Mar-10 11:33N 48°11' W 122°58'1414.2
2015-Mar-10 10:32N 48°13' W 123°20'1514.7
2015-Mar-10 09:31N 48°14' W 123°42'120 8.3
2015-Mar-09 19:09N 46°17' W 124°19'1117.0
2015-Mar-09 18:30N 46°06' W 124°17'43814.6
2015-Mar-08 12:33N 38°49' W 123°47'1515.1
2015-Mar-08 11:33N 38°34' W 123°43'1414.3
2015-Mar-08 10:33N 38°20' W 123°39'1414.2
2015-Mar-08 09:33N 38°06' W 123°35'1414.3
2015-Mar-08 08:33N 37°52' W 123°31'1514.8
2015-Mar-08 07:33N 37°38' W 123°28'1514.7
2015-Mar-08 06:33N 37°23' W 123°24'1514.7
2015-Mar-08 05:31N 37°09' W 123°17'1414.6
2015-Mar-08 04:33N 36°57' W 123°08'1514.9
2015-Mar-08 03:33N 36°43' W 123°01'1514.9
2015-Mar-08 02:33N 36°30' W 122°53'1211.7
2015-Mar-08 01:33N 36°19' W 122°47'10 9.9
2015-Mar-08 00:33N 36°10' W 122°41'1111.1
2015-Mar-07 23:33N 36°01' W 122°34'1313.3
2015-Mar-07 22:33N 35°49' W 122°27'1615.6
2015-Mar-07 21:33N 35°34' W 122°20'2115.7
2015-Mar-07 20:15N 35°16' W 122°09'1115.8
2015-Mar-07 19:33N 35°06' W 122°03'1616.0
2015-Mar-07 18:33N 34°51' W 121°54'1616.1
2015-Mar-07 17:32N 34°37' W 121°46'1616.3
2015-Mar-07 16:33N 34°22' W 121°38'1717.1
2015-Mar-07 15:33N 34°06' W 121°29'1817.0
2015-Mar-07 14:28N 33°50' W 121°19'1516.6
2015-Mar-07 13:33N 33°36' W 121°12'3616.8
2015-Mar-07 11:26N 33°04' W 120°54'3116.6
2015-Mar-07 09:33N 32°36' W 120°36'1616.4
2015-Mar-07 08:33N 32°21' W 120°28'1716.6
2015-Mar-07 07:33N 32°06' W 120°21'1716.6
2015-Mar-07 06:33N 31°51' W 120°13'1716.8
2015-Mar-07 05:34N 31°36' W 120°04'1716.8
2015-Mar-07 04:34N 31°20' W 119°56'1716.9
2015-Mar-07 03:34N 31°05' W 119°49'5616.7
2015-Mar-07 00:13N 30°14' W 119°23'1116.5
2015-Mar-06 23:33N 30°04' W 119°18'1716.6
2015-Mar-06 22:33N 29°48' W 119°10'3916.7
2015-Mar-06 20:15N 29°13' W 118°52'3516.6
2015-Mar-06 18:10N 28°42' W 118°36'  
Track history (hours):
 
Tides and Currents Weather Stations Pressure Air Temp Water Temp Dewpoint Dewpoint Depression Visibility Wind Speed Wind Dir Waves Ship Positions

Oceanographic research ship USCGC Polar Star (USA)

Detailed information on ship capabilities available from University of Delaware's Ocean Information Center and ARCUS's ALIAS (Arctic Logistics Information and Support) project.

Last reported at 2015-Mar-10 15:23 UTC. Time now 2015-Apr-01 21:14 UTC.
Position N 47°35' W 122°21'.
Warning: this ship's position is 22 days out of date.

Type: Military. MMSI: 367255000.

Date/timePositionNaut miles runAvg speedWind from/ knotsBaromVisibWave heightAir tempDewpointWater temp
2015-Mar-10 15:23N 47°35' W 122°21'2 2.4
2015-Mar-10 14:33N 47°36' W 122°23'1414.2
2015-Mar-10 13:33N 47°50' W 122°28'1615.8
2015-Mar-10 12:32N 48°04' W 122°40'1414.5
2015-Mar-10 11:33N 48°11' W 122°58'1414.2
2015-Mar-10 10:32N 48°13' W 123°20'1514.7
2015-Mar-10 09:31N 48°14' W 123°42'120 8.3
2015-Mar-09 19:09N 46°17' W 124°19'1117.0
2015-Mar-09 18:30N 46°06' W 124°17'43814.6
2015-Mar-08 12:33N 38°49' W 123°47'1515.1
2015-Mar-08 11:33N 38°34' W 123°43'1414.3
2015-Mar-08 10:33N 38°20' W 123°39'1414.2
2015-Mar-08 09:33N 38°06' W 123°35'1414.3
2015-Mar-08 08:33N 37°52' W 123°31'1514.8
2015-Mar-08 07:33N 37°38' W 123°28'1514.7
2015-Mar-08 06:33N 37°23' W 123°24'1514.7
2015-Mar-08 05:31N 37°09' W 123°17'1414.6
2015-Mar-08 04:33N 36°57' W 123°08'1514.9
2015-Mar-08 03:33N 36°43' W 123°01'1514.9
2015-Mar-08 02:33N 36°30' W 122°53'1211.7
2015-Mar-08 01:33N 36°19' W 122°47'10 9.9
2015-Mar-08 00:33N 36°10' W 122°41'1111.1
2015-Mar-07 23:33N 36°01' W 122°34'1313.3
2015-Mar-07 22:33N 35°49' W 122°27'1615.6
2015-Mar-07 21:33N 35°34' W 122°20'2115.7
2015-Mar-07 20:15N 35°16' W 122°09'1115.8
2015-Mar-07 19:33N 35°06' W 122°03'1616.0
2015-Mar-07 18:33N 34°51' W 121°54'1616.1
2015-Mar-07 17:32N 34°37' W 121°46'1616.3
2015-Mar-07 16:33N 34°22' W 121°38'1717.1
2015-Mar-07 15:33N 34°06' W 121°29'1817.0
2015-Mar-07 14:28N 33°50' W 121°19'1516.6
2015-Mar-07 13:33N 33°36' W 121°12'3616.8
2015-Mar-07 11:26N 33°04' W 120°54'3116.6
2015-Mar-07 09:33N 32°36' W 120°36'1616.4
2015-Mar-07 08:33N 32°21' W 120°28'1716.6
2015-Mar-07 07:33N 32°06' W 120°21'1716.6
2015-Mar-07 06:33N 31°51' W 120°13'1716.8
2015-Mar-07 05:34N 31°36' W 120°04'1716.8
2015-Mar-07 04:34N 31°20' W 119°56'1716.9
2015-Mar-07 03:34N 31°05' W 119°49'5616.7
2015-Mar-07 00:13N 30°14' W 119°23'1116.5
2015-Mar-06 23:33N 30°04' W 119°18'1716.6
2015-Mar-06 22:33N 29°48' W 119°10'3916.7
2015-Mar-06 20:15N 29°13' W 118°52'3516.6
2015-Mar-06 18:10N 28°42' W 118°36'  

Dump ship's entire track history